Arnold, Kansas
Current Conditions -  °F | °C
As of 6:55 AM on Monday 22 Dec 2014 (Local Time) from KHYS Reporting Station
Broken Clouds Broken Clouds  
Wind Chill: 36°   Ceiling: 10000
Heat Index: 43°   Visibility: 10mi
Dew Point: 30°   Wind: 14mph
Humidity: 61%   Direction: 320°NW
Pressure: 29.57"   Gusts: NA
Location:  38.64°N, 100.05°W
Report Text: KHYS 221255Z AUTO 32012KT 10SM FEW080 BKN100 06/M01 A2957 RMK AO1
Loading
Personal Weather Stations






























Interactive Weather Map New forecast layout! Learn more

10-Day Weather Forecast

Advertisements
Track Severe Weather on mobile